createdAt,value
2017-07-28T00:02:26.486Z,3.20
2017-07-28T00:04:53.924Z,2.90
2017-07-28T00:07:21.384Z,2.80
2017-07-28T00:09:48.823Z,3.10
2017-07-28T00:12:16.323Z,3.00
2017-07-28T00:14:43.754Z,3.20
2017-07-28T00:17:11.216Z,3.20
2017-07-28T00:19:38.655Z,3.20
2017-07-28T00:22:06.095Z,3.10
2017-07-28T00:24:33.551Z,3.20
2017-07-28T00:27:00.992Z,3.50
2017-07-28T00:29:28.447Z,2.90
2017-07-28T00:31:56.648Z,3.30
2017-07-28T00:34:24.105Z,3.13
2017-07-28T00:36:51.540Z,3.77
2017-07-28T00:39:19.053Z,3.70
2017-07-28T00:41:46.600Z,3.50
2017-07-28T00:44:14.129Z,4.23
2017-07-28T00:46:41.583Z,3.97
2017-07-28T00:49:09.057Z,3.70
2017-07-28T00:51:36.500Z,4.30
2017-07-28T00:54:03.957Z,3.97
2017-07-28T00:56:31.388Z,4.10
2017-07-28T00:58:58.850Z,3.97
2017-07-28T01:01:26.303Z,4.00
2017-07-28T01:03:53.750Z,4.20
2017-07-28T01:06:22.049Z,4.13
2017-07-28T01:08:49.490Z,3.77
2017-07-28T01:11:17.704Z,5.00
2017-07-28T01:13:45.147Z,4.70
2017-07-28T01:16:12.618Z,4.13
2017-07-28T01:18:40.071Z,4.13
2017-07-28T01:21:07.520Z,4.50
2017-07-28T01:23:34.972Z,3.77
2017-07-28T01:26:02.425Z,5.07
2017-07-28T01:28:29.875Z,4.67
2017-07-28T01:30:57.324Z,4.60
2017-07-28T01:33:24.790Z,4.13
2017-07-28T01:35:52.247Z,4.70
2017-07-28T01:38:19.679Z,4.40
2017-07-28T01:40:47.153Z,4.70
2017-07-28T01:43:14.592Z,3.90
2017-07-28T01:45:42.035Z,4.53
2017-07-28T01:48:10.247Z,4.30
2017-07-28T01:50:37.715Z,5.00
2017-07-28T01:53:05.205Z,5.10
2017-07-28T01:55:32.639Z,4.93
2017-07-28T01:58:00.101Z,4.40
2017-07-28T02:00:27.560Z,5.10
2017-07-28T02:02:55.119Z,4.60
2017-07-28T02:05:22.693Z,4.20
2017-07-28T02:07:50.229Z,4.13
2017-07-28T02:10:17.792Z,4.07
2017-07-28T02:12:45.231Z,4.37
2017-07-28T02:15:12.688Z,4.20
2017-07-28T02:17:40.121Z,4.00
2017-07-28T02:20:07.568Z,3.70
2017-07-28T02:22:35.032Z,3.80
2017-07-28T02:25:02.466Z,4.57
2017-07-28T02:27:29.912Z,4.47
2017-07-28T02:29:58.150Z,4.10
2017-07-28T02:32:25.611Z,4.20
2017-07-28T02:34:53.044Z,4.00
2017-07-28T02:37:20.487Z,3.97
2017-07-28T02:39:47.953Z,4.67
2017-07-28T02:42:15.383Z,4.33
2017-07-28T02:44:42.848Z,4.13
2017-07-28T02:47:10.272Z,3.80
2017-07-28T02:49:37.727Z,4.13
2017-07-28T02:52:05.953Z,4.27
2017-07-28T02:54:33.383Z,3.53
2017-07-28T02:57:00.896Z,3.60
2017-07-28T02:59:28.363Z,3.50
2017-07-28T03:01:55.860Z,3.47
2017-07-28T03:04:23.296Z,4.60
2017-07-28T03:06:51.492Z,3.10
2017-07-28T03:09:18.960Z,3.60
2017-07-28T03:11:46.410Z,4.17
2017-07-28T03:14:13.874Z,3.97
2017-07-28T03:16:41.315Z,4.63
2017-07-28T03:19:08.751Z,3.90
2017-07-28T03:21:36.211Z,3.77
2017-07-28T03:24:03.675Z,4.10
2017-07-28T03:26:31.594Z,4.33
2017-07-28T03:28:59.060Z,3.50
2017-07-28T03:31:26.514Z,3.97
2017-07-28T03:33:53.959Z,4.60
2017-07-28T03:36:21.441Z,3.97
2017-07-28T03:38:48.896Z,4.70
2017-07-28T03:41:16.367Z,3.70
2017-07-28T03:43:44.563Z,4.10
2017-07-28T03:46:12.013Z,4.27
2017-07-28T03:48:39.452Z,4.07
2017-07-28T03:51:07.674Z,4.80
2017-07-28T03:53:35.142Z,5.23
2017-07-28T03:56:02.626Z,5.50
2017-07-28T03:58:30.078Z,5.10
2017-07-28T04:00:57.523Z,6.53
2017-07-28T04:03:24.971Z,3.90
2017-07-28T04:05:52.469Z,5.03
2017-07-28T04:08:20.707Z,5.87
2017-07-28T04:10:48.147Z,4.43
2017-07-28T04:13:15.614Z,5.50
2017-07-28T04:15:43.065Z,4.70
2017-07-28T04:18:10.530Z,4.07
2017-07-28T04:20:37.983Z,5.03
2017-07-28T04:23:05.460Z,4.80
2017-07-28T04:25:32.918Z,5.27
2017-07-28T04:28:00.375Z,5.13
2017-07-28T04:30:28.587Z,4.87
2017-07-28T04:32:56.048Z,4.97
2017-07-28T04:35:23.581Z,4.60
2017-07-28T04:37:51.179Z,4.53
2017-07-28T04:40:18.715Z,5.17
2017-07-28T04:42:46.195Z,5.33
2017-07-28T04:45:13.655Z,4.90
2017-07-28T04:47:41.119Z,4.73
2017-07-28T04:50:08.564Z,4.83
2017-07-28T04:52:36.009Z,4.90
2017-07-28T04:55:03.480Z,5.60
2017-07-28T04:57:30.921Z,4.70
2017-07-28T04:59:58.389Z,5.40
2017-07-28T05:02:25.847Z,4.93
2017-07-28T05:04:53.293Z,5.07
2017-07-28T05:07:20.757Z,4.40
2017-07-28T05:09:48.202Z,4.80
2017-07-28T05:12:15.646Z,5.07
2017-07-28T05:14:43.103Z,4.60
2017-07-28T05:17:10.544Z,6.20
2017-07-28T05:19:38.775Z,5.30
2017-07-28T05:22:06.216Z,5.43
2017-07-28T05:24:33.665Z,6.17
2017-07-28T05:27:01.120Z,5.80
2017-07-28T05:29:28.605Z,5.53
2017-07-28T05:31:56.066Z,5.77
2017-07-28T05:34:23.505Z,6.30
2017-07-28T05:36:50.946Z,5.00
2017-07-28T05:39:18.404Z,4.57
2017-07-28T05:41:45.848Z,4.97
2017-07-28T05:44:13.305Z,5.37
2017-07-28T05:46:40.747Z,4.90
2017-07-28T05:49:08.214Z,4.93
2017-07-28T05:51:35.649Z,4.83
2017-07-28T05:54:03.098Z,4.77
2017-07-28T05:56:31.329Z,5.37
2017-07-28T05:58:58.766Z,4.50
2017-07-28T06:01:26.246Z,5.30
2017-07-28T06:03:53.684Z,3.90
2017-07-28T06:06:21.164Z,5.47
2017-07-28T06:08:48.599Z,4.67
2017-07-28T06:11:16.036Z,4.53
2017-07-28T06:13:43.502Z,8.63
2017-07-28T06:16:10.941Z,4.83
2017-07-28T06:18:39.029Z,4.40
2017-07-28T06:21:07.102Z,4.87
2017-07-28T06:23:34.588Z,4.60
2017-07-28T06:26:02.060Z,4.07
2017-07-28T06:28:29.492Z,3.80
2017-07-28T06:30:56.948Z,4.53
2017-07-28T06:33:24.423Z,3.70
2017-07-28T06:35:51.901Z,4.33
2017-07-28T06:38:20.140Z,4.53
2017-07-28T06:40:47.577Z,3.77
2017-07-28T06:43:15.070Z,3.57
2017-07-28T06:45:42.503Z,3.80
2017-07-28T06:48:09.965Z,3.70
2017-07-28T06:50:37.398Z,3.10
2017-07-28T06:53:04.854Z,2.90
2017-07-28T06:55:32.301Z,2.70
2017-07-28T06:57:59.732Z,3.27
2017-07-28T07:00:27.956Z,3.60
2017-07-28T07:02:55.397Z,2.70
2017-07-28T07:05:22.851Z,3.30
2017-07-28T07:07:50.293Z,3.00
2017-07-28T07:10:17.740Z,2.73
2017-07-28T07:12:45.192Z,3.47
2017-07-28T07:15:12.653Z,3.27
2017-07-28T07:17:40.103Z,2.87
2017-07-28T07:20:07.559Z,3.53
2017-07-28T07:22:35.009Z,2.90
2017-07-28T07:25:02.459Z,2.67
2017-07-28T07:27:29.895Z,2.73
2017-07-28T07:29:57.420Z,2.97
2017-07-28T07:32:24.852Z,3.00
2017-07-28T07:34:52.439Z,2.87
2017-07-28T07:37:19.913Z,3.00
2017-07-28T07:39:47.385Z,3.33
2017-07-28T07:42:14.824Z,2.90
2017-07-28T07:44:42.263Z,3.10
2017-07-28T07:47:09.727Z,2.80
2017-07-28T07:49:37.152Z,2.70
2017-07-28T07:52:04.599Z,2.90
2017-07-28T07:54:32.063Z,2.80
2017-07-28T07:56:59.525Z,3.83
2017-07-28T07:59:26.959Z,2.90
2017-07-28T08:01:54.431Z,3.37
2017-07-28T08:04:21.902Z,3.30
2017-07-28T08:06:49.338Z,2.80
2017-07-28T08:09:16.795Z,2.83
2017-07-28T08:11:44.340Z,3.27
2017-07-28T08:14:11.848Z,3.00
2017-07-28T08:16:39.288Z,2.43
2017-07-28T08:19:06.757Z,3.63
2017-07-28T08:21:34.187Z,2.93
2017-07-28T08:24:01.676Z,3.47
2017-07-28T08:26:29.147Z,2.53
2017-07-28T08:28:56.584Z,2.90
2017-07-28T08:31:24.043Z,3.07
2017-07-28T08:33:51.571Z,2.97
2017-07-28T08:36:19.065Z,3.17
2017-07-28T08:38:46.500Z,2.50
2017-07-28T08:41:13.950Z,3.93
2017-07-28T08:43:41.388Z,3.20
2017-07-28T08:46:08.848Z,2.43
2017-07-28T08:48:36.283Z,2.90
2017-07-28T08:51:03.750Z,2.30
2017-07-28T08:53:31.273Z,2.33
2017-07-28T08:55:58.736Z,2.50
2017-07-28T08:58:26.207Z,3.30
2017-07-28T09:00:53.678Z,2.90
2017-07-28T09:03:21.910Z,2.77
2017-07-28T09:05:49.360Z,2.80
2017-07-28T09:08:16.825Z,2.77
2017-07-28T09:10:44.273Z,2.70
2017-07-28T09:13:11.760Z,3.00
2017-07-28T09:15:39.228Z,2.80
2017-07-28T09:18:06.659Z,2.60
2017-07-28T09:20:34.905Z,2.80
2017-07-28T09:23:02.346Z,2.60
2017-07-28T09:25:29.857Z,2.87
2017-07-28T09:27:57.368Z,2.60
2017-07-28T09:30:24.961Z,2.67
2017-07-28T09:32:52.430Z,3.73
2017-07-28T09:35:20.636Z,2.73
2017-07-28T09:37:48.084Z,2.90
2017-07-28T09:40:15.515Z,2.83
2017-07-28T09:42:43.868Z,2.80
2017-07-28T09:45:11.326Z,2.40
2017-07-28T09:47:38.780Z,2.13
2017-07-28T09:50:06.908Z,5.00
2017-07-28T09:52:34.370Z,3.13
2017-07-28T09:55:01.853Z,2.73
2017-07-28T09:57:29.321Z,2.97
2017-07-28T09:59:56.767Z,3.07
2017-07-28T10:02:24.215Z,2.87
2017-07-28T10:04:51.647Z,3.50
2017-07-28T10:07:19.117Z,2.80
2017-07-28T10:09:46.581Z,2.43
2017-07-28T10:12:14.044Z,2.97
2017-07-28T10:14:41.475Z,2.70
2017-07-28T10:17:08.919Z,2.67
2017-07-28T10:19:36.356Z,2.60
2017-07-28T10:22:04.595Z,3.67
2017-07-28T10:24:32.031Z,3.00
2017-07-28T10:26:59.495Z,2.93
2017-07-28T10:29:26.937Z,2.90
2017-07-28T10:31:54.388Z,3.20
2017-07-28T10:34:22.757Z,3.00
2017-07-28T10:36:50.233Z,2.87
2017-07-28T10:39:17.701Z,3.23
2017-07-28T10:41:45.160Z,2.97
2017-07-28T10:44:12.617Z,3.20
2017-07-28T10:46:40.043Z,3.10
2017-07-28T10:49:07.496Z,3.80
2017-07-28T10:51:34.930Z,4.40
2017-07-28T10:54:02.393Z,3.27
2017-07-28T10:56:29.834Z,4.10
2017-07-28T10:58:58.060Z,4.20
2017-07-28T11:01:25.494Z,3.60
2017-07-28T11:03:52.929Z,3.50
2017-07-28T11:06:21.152Z,3.83
2017-07-28T11:08:48.587Z,3.47
2017-07-28T11:11:16.072Z,2.53
2017-07-28T11:13:43.508Z,3.50
2017-07-28T11:16:10.968Z,3.40
2017-07-28T11:18:38.423Z,2.90
2017-07-28T11:21:05.891Z,2.67
2017-07-28T11:23:33.323Z,2.60
2017-07-28T11:26:00.759Z,3.20
2017-07-28T11:28:28.242Z,3.63
2017-07-28T11:30:55.680Z,2.20
2017-07-28T11:33:23.131Z,2.60
2017-07-28T11:35:50.605Z,3.40
2017-07-28T11:38:18.041Z,2.87
2017-07-28T11:40:45.500Z,2.30
2017-07-28T11:43:12.931Z,3.57
2017-07-28T11:45:41.133Z,2.53
2017-07-28T11:48:08.588Z,2.83
2017-07-28T11:50:36.016Z,1.90
2017-07-28T11:53:03.463Z,2.70
2017-07-28T11:55:30.924Z,2.43
2017-07-28T11:57:59.152Z,2.90
2017-07-28T12:00:26.612Z,2.20
2017-07-28T12:02:54.070Z,2.13
2017-07-28T12:05:21.527Z,2.80
2017-07-28T12:07:49.008Z,2.53
2017-07-28T12:10:16.488Z,2.90
2017-07-28T12:12:44.729Z,2.60
2017-07-28T12:15:12.186Z,3.07
2017-07-28T12:17:39.619Z,2.80
2017-07-28T12:20:07.074Z,2.90
2017-07-28T12:22:34.520Z,3.50
2017-07-28T12:25:01.954Z,2.53
2017-07-28T12:27:29.407Z,2.33
2017-07-28T12:29:57.624Z,2.80
2017-07-28T12:32:25.082Z,2.57
2017-07-28T12:34:52.531Z,2.93
2017-07-28T12:37:19.979Z,2.60
2017-07-28T12:39:47.427Z,2.40
2017-07-28T12:42:14.932Z,2.80
2017-07-28T12:44:42.386Z,2.37
2017-07-28T12:47:09.863Z,3.00
2017-07-28T12:49:38.095Z,2.50
2017-07-28T12:52:05.527Z,2.57
2017-07-28T12:54:32.979Z,2.60
2017-07-28T12:57:00.427Z,2.50
2017-07-28T12:59:27.864Z,3.00
2017-07-28T13:01:56.092Z,3.00
2017-07-28T13:04:23.556Z,2.97
2017-07-28T13:06:50.995Z,2.20
2017-07-28T13:09:18.468Z,2.80
2017-07-28T13:11:45.975Z,2.43
2017-07-28T13:14:14.165Z,2.87
2017-07-28T13:16:41.642Z,2.70
2017-07-28T13:19:09.068Z,2.17
2017-07-28T13:21:36.522Z,2.80
2017-07-28T13:24:03.987Z,2.90
2017-07-28T13:26:31.468Z,2.83
2017-07-28T13:28:58.899Z,2.60
2017-07-28T13:31:26.365Z,2.67
2017-07-28T13:33:53.841Z,2.80
2017-07-28T13:36:21.282Z,2.60
2017-07-28T13:38:48.733Z,1.87
2017-07-28T13:41:16.175Z,2.10
2017-07-28T13:43:43.647Z,1.97
2017-07-28T13:46:16.760Z,2.00
2017-07-28T13:48:44.200Z,1.90
2017-07-28T13:51:11.661Z,2.10
2017-07-28T13:53:39.118Z,2.50
2017-07-28T13:56:06.612Z,2.27
2017-07-28T13:58:34.093Z,2.27
2017-07-28T14:01:01.542Z,1.90
2017-07-28T14:03:29.776Z,2.27
2017-07-28T14:05:57.210Z,2.23
2017-07-28T14:08:24.645Z,2.53
2017-07-28T14:10:52.105Z,2.27
2017-07-28T14:13:19.716Z,2.40
2017-07-28T14:15:47.148Z,1.70
2017-07-28T14:18:14.612Z,2.03
2017-07-28T14:20:42.065Z,1.80
2017-07-28T14:23:09.520Z,1.87
2017-07-28T14:25:36.961Z,3.30
2017-07-28T14:28:04.428Z,2.20
2017-07-28T14:30:31.860Z,2.23
2017-07-28T14:32:59.319Z,2.00
2017-07-28T14:35:26.776Z,2.63
2017-07-28T14:37:54.237Z,1.67
2017-07-28T14:40:21.697Z,2.13
2017-07-28T14:42:49.138Z,2.20
2017-07-28T14:45:16.588Z,1.80
2017-07-28T14:47:44.052Z,1.80
2017-07-28T14:50:11.507Z,2.37
2017-07-28T14:52:38.952Z,1.60
2017-07-28T14:55:06.415Z,1.37
2017-07-28T14:57:33.867Z,1.60
2017-07-28T15:00:01.314Z,1.87
2017-07-28T15:02:28.776Z,1.90
2017-07-28T15:04:56.229Z,1.87
2017-07-28T15:07:23.659Z,1.90
2017-07-28T15:09:53.295Z,1.83
2017-07-28T15:12:20.739Z,1.73
2017-07-28T15:14:48.194Z,1.80
2017-07-28T15:17:15.636Z,1.50
2017-07-28T15:19:43.864Z,2.03
2017-07-28T15:22:11.291Z,1.50
2017-07-28T15:24:38.746Z,1.67
2017-07-28T15:27:06.183Z,1.60
2017-07-28T15:29:34.408Z,1.73
2017-07-28T15:32:01.841Z,1.93
2017-07-28T15:34:29.270Z,1.53
2017-07-28T15:36:57.509Z,1.50
2017-07-28T15:39:24.968Z,1.90
2017-07-28T15:41:52.396Z,1.17
2017-07-28T15:44:19.871Z,1.50
2017-07-28T15:46:47.333Z,1.30
2017-07-28T15:49:14.756Z,1.73
2017-07-28T15:51:42.260Z,1.43
2017-07-28T15:54:09.721Z,2.43
2017-07-28T15:56:37.154Z,1.97
2017-07-28T15:59:04.625Z,2.23
2017-07-28T16:01:32.053Z,1.60
2017-07-28T16:03:59.489Z,1.80
2017-07-28T16:06:26.941Z,1.60
2017-07-28T16:08:54.391Z,1.93
2017-07-28T16:11:21.862Z,1.80
2017-07-28T16:13:49.295Z,1.63
2017-07-28T16:16:16.752Z,2.27
2017-07-28T16:18:44.200Z,1.60
2017-07-28T16:21:11.642Z,1.40
2017-07-28T16:23:39.860Z,1.40
2017-07-28T16:26:07.384Z,2.10
2017-07-28T16:28:34.907Z,1.40
2017-07-28T16:31:02.471Z,2.63
2017-07-28T16:33:29.936Z,2.30
2017-07-28T16:35:57.414Z,1.70
2017-07-28T16:38:24.859Z,1.97
2017-07-28T16:40:53.090Z,1.77
2017-07-28T16:43:20.520Z,1.67
2017-07-28T16:45:47.976Z,1.63
2017-07-28T16:48:15.436Z,2.40
2017-07-28T16:50:42.991Z,2.83
2017-07-28T16:53:10.538Z,1.67
2017-07-28T16:55:38.006Z,1.70
2017-07-28T16:58:05.436Z,1.53
2017-07-28T17:00:33.659Z,1.73
2017-07-28T17:03:01.175Z,2.10
2017-07-28T17:05:29.372Z,1.50
2017-07-28T17:07:56.839Z,1.50
2017-07-28T17:10:24.277Z,1.73
2017-07-28T17:12:51.711Z,1.83
2017-07-28T17:15:19.921Z,1.90
2017-07-28T17:17:47.360Z,1.90
2017-07-28T17:20:14.820Z,2.10
2017-07-28T17:22:42.261Z,2.30
2017-07-28T17:25:09.700Z,1.40
2017-07-28T17:27:37.931Z,2.00
2017-07-28T17:30:05.455Z,1.90
2017-07-28T17:32:33.060Z,2.00
2017-07-28T17:35:00.540Z,1.80
2017-07-28T17:37:27.978Z,1.90
2017-07-28T17:39:55.439Z,1.90
2017-07-28T17:42:22.877Z,2.07
2017-07-28T17:44:50.330Z,1.87
2017-07-28T17:47:17.767Z,2.10
2017-07-28T17:49:45.220Z,1.73
2017-07-28T17:52:12.721Z,1.57
2017-07-28T17:54:40.173Z,2.10
2017-07-28T17:57:07.615Z,2.17
2017-07-28T17:59:35.086Z,1.60
2017-07-28T18:02:02.540Z,2.60
2017-07-28T18:04:30.002Z,1.63
2017-07-28T18:06:57.437Z,1.73
2017-07-28T18:09:24.952Z,1.90
2017-07-28T18:11:52.519Z,2.33
2017-07-28T18:14:19.963Z,2.17
2017-07-28T18:16:48.188Z,2.10
2017-07-28T18:19:15.622Z,2.20
2017-07-28T18:21:43.083Z,3.00
2017-07-28T18:24:10.516Z,2.43
2017-07-28T18:26:37.976Z,2.23
2017-07-28T18:29:05.430Z,2.20
2017-07-28T18:31:32.864Z,2.50
2017-07-28T18:34:01.094Z,2.77
2017-07-28T18:36:29.138Z,2.57
2017-07-28T18:38:56.593Z,3.27
2017-07-28T18:41:24.025Z,2.57
2017-07-28T18:43:53.059Z,2.10
2017-07-28T18:46:20.548Z,3.33
2017-07-28T18:48:48.004Z,3.00
2017-07-28T18:51:15.514Z,3.07
2017-07-28T18:53:42.961Z,2.80
2017-07-28T18:56:10.414Z,3.10
2017-07-28T18:58:37.919Z,2.83
2017-07-28T19:01:05.453Z,3.33
2017-07-28T19:03:32.971Z,2.50
2017-07-28T19:06:01.184Z,2.10
2017-07-28T19:08:28.641Z,2.53
2017-07-28T19:10:56.084Z,2.47
2017-07-28T19:13:23.588Z,2.13
2017-07-28T19:15:51.017Z,2.40
2017-07-28T19:18:19.044Z,2.33
2017-07-28T19:20:46.517Z,2.90
2017-07-28T19:23:14.021Z,2.10
2017-07-28T19:25:41.500Z,2.20
2017-07-28T19:28:08.946Z,2.27
2017-07-28T19:30:36.392Z,2.30
2017-07-28T19:33:03.871Z,2.80
2017-07-28T19:35:31.342Z,3.00
2017-07-28T19:37:59.576Z,2.73
2017-07-28T19:40:27.029Z,2.07
2017-07-28T19:42:54.491Z,2.53
2017-07-28T19:45:22.088Z,2.60
2017-07-28T19:47:50.324Z,2.20
2017-07-28T19:50:17.780Z,2.90
2017-07-28T19:52:45.324Z,2.77
2017-07-28T19:55:12.820Z,2.10
2017-07-28T19:57:41.011Z,2.33
2017-07-28T20:00:08.464Z,2.47
2017-07-28T20:02:36.047Z,2.70
2017-07-28T20:05:03.541Z,2.43
2017-07-28T20:07:31.000Z,2.53
2017-07-28T20:09:58.452Z,2.73
2017-07-28T20:12:25.894Z,2.83
2017-07-28T20:14:53.620Z,2.97
2017-07-28T20:17:21.071Z,2.60
2017-07-28T20:19:48.550Z,3.13
2017-07-28T20:22:15.991Z,3.27
2017-07-28T20:24:43.479Z,2.13
2017-07-28T20:27:11.019Z,2.20
2017-07-28T20:29:38.467Z,2.20
2017-07-28T20:32:05.951Z,2.60
2017-07-28T20:34:33.419Z,2.53
2017-07-28T20:37:00.873Z,2.87
2017-07-28T20:39:28.338Z,2.80
2017-07-28T20:41:55.799Z,3.20
2017-07-28T20:44:23.288Z,2.60
2017-07-28T20:46:50.824Z,2.63
2017-07-28T20:49:18.311Z,3.13
2017-07-28T20:51:45.774Z,3.10
2017-07-28T20:54:13.223Z,2.30
2017-07-28T20:56:40.679Z,2.60
2017-07-28T20:59:08.144Z,2.53
2017-07-28T21:01:35.559Z,2.50
2017-07-28T21:04:03.134Z,3.03
2017-07-28T21:06:30.609Z,2.40
2017-07-28T21:08:58.091Z,3.00
2017-07-28T21:11:25.532Z,2.53
2017-07-28T21:14:05.349Z,2.90
2017-07-28T21:16:32.840Z,2.80
2017-07-28T21:19:00.289Z,2.93
2017-07-28T21:21:27.740Z,3.00
2017-07-28T21:23:55.190Z,2.60
2017-07-28T21:26:22.696Z,2.57
2017-07-28T21:28:50.165Z,2.30
2017-07-28T21:31:18.363Z,2.37
2017-07-28T21:33:45.816Z,3.13
2017-07-28T21:36:13.252Z,2.10
2017-07-28T21:38:40.727Z,2.90
2017-07-28T21:41:08.238Z,2.27
2017-07-28T21:43:35.696Z,2.90
2017-07-28T21:46:03.152Z,2.50
2017-07-28T21:48:30.576Z,2.00
2017-07-28T21:50:58.052Z,2.57
2017-07-28T21:53:25.531Z,3.23
2017-07-28T21:55:52.984Z,2.70
2017-07-28T21:58:20.459Z,2.83
2017-07-28T22:00:47.927Z,3.00
2017-07-28T22:03:15.379Z,3.60
2017-07-28T22:05:42.853Z,2.83
2017-07-28T22:08:10.271Z,2.60
2017-07-28T22:10:38.512Z,2.63
2017-07-28T22:13:05.945Z,2.57
2017-07-28T22:15:33.408Z,2.43
2017-07-28T22:18:00.898Z,2.93
2017-07-28T22:20:28.354Z,2.60
2017-07-28T22:22:55.853Z,2.57
2017-07-28T22:25:23.283Z,2.63
2017-07-28T22:27:51.525Z,3.20
2017-07-28T22:30:18.953Z,2.20
2017-07-28T22:32:46.448Z,2.80
2017-07-28T22:35:13.893Z,2.30
2017-07-28T22:37:41.327Z,3.17
2017-07-28T22:40:08.800Z,2.50
2017-07-28T22:42:36.290Z,3.00
2017-07-28T22:45:04.517Z,2.80
2017-07-28T22:47:31.997Z,2.90
2017-07-28T22:49:59.451Z,3.87
2017-07-28T22:52:26.959Z,2.70
2017-07-28T22:54:54.956Z,3.07
2017-07-28T22:57:22.420Z,2.57
2017-07-28T22:59:49.866Z,3.00
2017-07-28T23:02:17.333Z,3.17
2017-07-28T23:04:44.814Z,3.17
2017-07-28T23:07:12.256Z,2.87
2017-07-28T23:09:39.750Z,2.73
2017-07-28T23:12:07.976Z,3.43
2017-07-28T23:14:35.529Z,2.90
2017-07-28T23:17:02.985Z,3.60
2017-07-28T23:19:30.567Z,2.80
2017-07-28T23:21:58.038Z,3.40
2017-07-28T23:24:26.264Z,3.50
2017-07-28T23:26:53.789Z,3.43
2017-07-28T23:29:22.010Z,3.30
2017-07-28T23:31:49.449Z,3.30
2017-07-28T23:34:16.907Z,3.50
2017-07-28T23:36:44.364Z,3.27
2017-07-28T23:39:11.801Z,3.17
2017-07-28T23:41:39.272Z,3.77
2017-07-28T23:44:06.735Z,3.47
2017-07-28T23:46:34.177Z,3.30
2017-07-28T23:49:01.644Z,2.93
2017-07-28T23:51:29.085Z,3.33
2017-07-28T23:53:56.516Z,3.10
2017-07-28T23:56:23.973Z,3.60
2017-07-28T23:58:51.420Z,3.10
